createdAt,value
2018-12-13T00:00:27.311Z,8.97
2018-12-13T00:02:54.866Z,8.40
2018-12-13T00:05:22.403Z,8.40
2018-12-13T00:07:49.946Z,9.47
2018-12-13T00:10:17.516Z,6.07
2018-12-13T00:12:45.061Z,6.70
2018-12-13T00:15:12.671Z,6.07
2018-12-13T00:17:40.211Z,5.57
2018-12-13T00:20:07.831Z,5.53
2018-12-13T00:22:35.379Z,6.57
2018-12-13T00:25:02.958Z,5.00
2018-12-13T00:27:31.046Z,5.43
2018-12-13T00:29:58.593Z,4.80
2018-12-13T00:32:26.139Z,5.90
2018-12-13T00:34:53.670Z,5.33
2018-12-13T00:37:21.221Z,11.03
2018-12-13T00:39:48.746Z,6.33
2018-12-13T00:42:16.294Z,9.17
2018-12-13T00:44:43.825Z,8.70
2018-12-13T00:47:11.374Z,8.70
2018-12-13T00:49:38.906Z,13.10
2018-12-13T00:52:06.578Z,8.57
2018-12-13T00:54:34.107Z,9.30
2018-12-13T00:57:01.658Z,11.47
2018-12-13T00:59:29.194Z,13.33
2018-12-13T01:01:56.768Z,10.63
2018-12-13T01:04:24.322Z,12.67
2018-12-13T01:06:52.441Z,8.83
2018-12-13T01:09:20.070Z,5.00
2018-12-13T01:11:47.602Z,14.23
2018-12-13T01:14:15.146Z,13.77
2018-12-13T01:16:42.676Z,11.33
2018-12-13T01:19:10.222Z,14.60
2018-12-13T01:21:37.746Z,12.03
2018-12-13T01:24:05.467Z,19.67
2018-12-13T01:26:33.007Z,19.20
2018-12-13T01:29:00.556Z,13.13
2018-12-13T01:31:28.086Z,11.03
2018-12-13T01:33:55.648Z,27.07
2018-12-13T01:36:23.182Z,12.17
2018-12-13T01:38:50.734Z,8.30
2018-12-13T01:41:18.266Z,10.53
2018-12-13T01:43:45.815Z,13.47
2018-12-13T01:46:13.394Z,13.30
2018-12-13T01:48:40.951Z,25.37
2018-12-13T01:51:08.533Z,17.47
2018-12-13T01:53:36.086Z,20.00
2018-12-13T01:56:03.617Z,16.00
2018-12-13T01:58:31.168Z,14.43
2018-12-13T02:00:58.701Z,10.27
2018-12-13T02:03:26.253Z,12.93
2018-12-13T02:05:53.783Z,13.87
2018-12-13T02:08:21.330Z,11.57
2018-12-13T02:10:48.900Z,8.60
2018-12-13T02:13:16.458Z,12.87
2018-12-13T02:15:43.991Z,11.17
2018-12-13T02:18:11.587Z,13.93
2018-12-13T02:20:39.114Z,11.50
2018-12-13T02:23:06.662Z,9.47
2018-12-13T02:25:34.194Z,20.73
2018-12-13T02:28:01.742Z,10.17
2018-12-13T02:30:29.315Z,23.30
2018-12-13T02:32:56.867Z,15.23
2018-12-13T02:35:24.399Z,12.30
2018-12-13T02:37:51.948Z,9.03
2018-12-13T02:40:19.480Z,10.83
2018-12-13T02:42:47.035Z,11.27
2018-12-13T02:45:14.591Z,12.17
2018-12-13T02:47:42.126Z,21.53
2018-12-13T02:50:09.771Z,21.97
2018-12-13T02:52:37.308Z,12.07
2018-12-13T02:55:04.954Z,11.40
2018-12-13T02:57:32.539Z,12.87
2018-12-13T03:00:00.099Z,15.57
2018-12-13T03:02:27.678Z,11.07
2018-12-13T03:04:55.275Z,8.30
2018-12-13T03:07:22.808Z,9.57
2018-12-13T03:09:50.367Z,16.00
2018-12-13T03:12:17.939Z,10.10
2018-12-13T03:14:45.544Z,9.23
2018-12-13T03:17:13.080Z,10.17
2018-12-13T03:19:40.632Z,14.00
2018-12-13T03:22:08.181Z,16.90
2018-12-13T03:24:35.743Z,10.30
2018-12-13T03:27:03.287Z,15.57
2018-12-13T03:29:30.853Z,7.97
2018-12-13T03:31:58.393Z,14.73
2018-12-13T03:34:25.955Z,13.43
2018-12-13T03:36:53.487Z,9.80
2018-12-13T03:39:21.040Z,10.43
2018-12-13T03:41:48.571Z,9.90
2018-12-13T03:44:16.126Z,8.17
2018-12-13T03:46:43.660Z,15.47
2018-12-13T03:49:11.222Z,17.97
2018-12-13T03:51:38.767Z,9.90
2018-12-13T03:54:06.336Z,14.43
2018-12-13T03:56:33.876Z,21.03
2018-12-13T03:59:01.435Z,11.83
2018-12-13T04:01:28.967Z,9.47
2018-12-13T04:03:56.528Z,22.53
2018-12-13T04:06:24.064Z,16.17
2018-12-13T04:08:51.618Z,14.37
2018-12-13T04:11:19.151Z,12.13
2018-12-13T04:13:46.712Z,11.27
2018-12-13T04:16:14.264Z,21.57
2018-12-13T04:18:41.823Z,14.67
2018-12-13T04:21:09.355Z,9.53
2018-12-13T04:23:36.930Z,13.80
2018-12-13T04:26:04.464Z,12.50
2018-12-13T04:28:32.003Z,18.83
2018-12-13T04:30:59.683Z,16.13
2018-12-13T04:33:27.223Z,17.70
2018-12-13T04:35:54.781Z,13.33
2018-12-13T04:38:22.316Z,16.50
2018-12-13T04:40:49.875Z,21.97
2018-12-13T04:43:17.464Z,31.27
2018-12-13T04:45:45.095Z,23.93
2018-12-13T04:48:12.733Z,37.77
2018-12-13T04:50:40.287Z,17.50
2018-12-13T04:53:07.868Z,16.57
2018-12-13T04:55:35.468Z,14.97
2018-12-13T04:58:03.004Z,14.80
2018-12-13T05:00:30.556Z,13.17
2018-12-13T05:02:58.102Z,9.30
2018-12-13T05:05:25.668Z,25.00
2018-12-13T05:07:53.207Z,20.13
2018-12-13T05:10:32.736Z,24.93
2018-12-13T05:13:00.275Z,28.83
2018-12-13T05:15:27.840Z,25.57
2018-12-13T05:17:55.558Z,17.93
2018-12-13T05:20:23.127Z,17.80
2018-12-13T05:22:50.667Z,14.67
2018-12-13T05:25:18.231Z,23.50
2018-12-13T05:27:45.770Z,21.57
2018-12-13T05:30:13.364Z,22.13
2018-12-13T05:32:40.903Z,13.70
2018-12-13T05:35:08.460Z,12.30
2018-12-13T05:37:36.001Z,24.23
2018-12-13T05:40:04.252Z,19.47
2018-12-13T05:42:31.787Z,15.93
2018-12-13T05:44:59.342Z,25.43
2018-12-13T05:47:26.879Z,24.10
2018-12-13T05:49:54.435Z,14.60
2018-12-13T05:52:21.976Z,18.97
2018-12-13T05:54:49.540Z,29.47
2018-12-13T05:57:17.080Z,14.07
2018-12-13T05:59:44.638Z,21.47
2018-12-13T06:02:12.216Z,15.50
2018-12-13T06:04:39.772Z,11.47
2018-12-13T06:07:07.313Z,10.00
2018-12-13T06:09:34.868Z,13.37
2018-12-13T06:12:02.407Z,12.57
2018-12-13T06:14:29.964Z,11.90
2018-12-13T06:16:57.506Z,10.57
2018-12-13T06:19:26.844Z,17.33
2018-12-13T06:21:54.657Z,11.43
2018-12-13T06:24:22.193Z,12.53
2018-12-13T06:26:49.748Z,11.27
2018-12-13T06:29:17.281Z,8.00
2018-12-13T06:31:44.832Z,7.57
2018-12-13T06:34:12.365Z,8.83
2018-12-13T06:36:39.915Z,8.13
2018-12-13T06:39:07.742Z,6.33
2018-12-13T06:41:35.332Z,8.73
2018-12-13T06:44:02.863Z,10.20
2018-12-13T06:46:30.420Z,6.07
2018-12-13T06:48:57.959Z,16.60
2018-12-13T06:51:25.523Z,10.73
2018-12-13T06:53:53.056Z,8.50
2018-12-13T06:56:20.607Z,13.57
2018-12-13T06:58:48.152Z,24.50
2018-12-13T07:01:15.709Z,16.60
2018-12-13T07:03:43.248Z,10.03
2018-12-13T07:06:10.931Z,10.87
2018-12-13T07:08:38.468Z,10.77
2018-12-13T07:11:06.025Z,9.27
2018-12-13T07:13:33.564Z,21.67
2018-12-13T07:16:01.127Z,19.53
2018-12-13T07:18:28.665Z,20.37
2018-12-13T07:20:56.228Z,19.33
2018-12-13T07:23:23.772Z,27.27
2018-12-13T07:25:51.328Z,15.77
2018-12-13T07:28:18.860Z,22.63
2018-12-13T07:30:46.463Z,16.97
2018-12-13T07:33:14.043Z,29.83
2018-12-13T07:35:41.648Z,29.10
2018-12-13T07:38:14.197Z,23.00
2018-12-13T07:40:38.824Z,20.67
2018-12-13T07:43:06.408Z,21.10
2018-12-13T07:45:33.968Z,22.17
2018-12-13T07:48:01.513Z,19.17
2018-12-13T07:50:29.075Z,16.70
2018-12-13T07:52:56.615Z,15.33
2018-12-13T07:55:24.216Z,19.90
2018-12-13T07:57:51.755Z,16.83
2018-12-13T08:00:19.372Z,20.90
2018-12-13T08:02:46.914Z,16.00
2018-12-13T08:05:14.471Z,15.43
2018-12-13T08:07:42.032Z,25.90
2018-12-13T08:10:09.576Z,20.27
2018-12-13T08:12:37.133Z,17.97
2018-12-13T08:15:04.969Z,23.63
2018-12-13T08:17:32.533Z,21.40
2018-12-13T08:20:00.071Z,21.87
2018-12-13T08:22:27.631Z,21.70
2018-12-13T08:24:55.213Z,24.03
2018-12-13T08:27:22.773Z,17.23
2018-12-13T08:29:50.307Z,20.70
2018-12-13T08:32:17.874Z,15.13
2018-12-13T08:34:45.416Z,26.83
2018-12-13T08:37:12.977Z,30.20
2018-12-13T08:39:40.516Z,28.10
2018-12-13T08:42:08.077Z,29.47
2018-12-13T08:44:35.616Z,26.87
2018-12-13T08:47:03.175Z,27.80
2018-12-13T08:49:30.719Z,26.97
2018-12-13T08:51:58.280Z,17.97
2018-12-13T08:54:25.812Z,23.60
2018-12-13T08:56:53.373Z,23.37
2018-12-13T08:59:20.911Z,24.83
2018-12-13T09:01:48.468Z,19.37
2018-12-13T09:04:16.007Z,17.20
2018-12-13T09:06:43.561Z,18.83
2018-12-13T09:09:11.104Z,23.53
2018-12-13T09:11:38.661Z,18.77
2018-12-13T09:14:06.251Z,20.73
2018-12-13T09:16:33.808Z,21.40
2018-12-13T09:19:01.347Z,20.87
2018-12-13T09:21:28.904Z,22.50
2018-12-13T09:23:56.435Z,27.60
2018-12-13T09:26:23.998Z,23.30
2018-12-13T09:28:51.531Z,25.50
2018-12-13T09:31:19.092Z,28.10
2018-12-13T09:33:46.636Z,27.40
2018-12-13T09:36:14.201Z,30.00
2018-12-13T09:38:41.737Z,26.93
2018-12-13T09:41:09.291Z,24.40
2018-12-13T09:43:36.873Z,26.67
2018-12-13T09:46:04.436Z,23.43
2018-12-13T09:48:31.979Z,32.07
2018-12-13T09:50:59.520Z,24.83
2018-12-13T09:53:27.080Z,22.47
2018-12-13T09:55:54.628Z,26.37
2018-12-13T09:58:22.183Z,25.83
2018-12-13T10:00:49.726Z,29.87
2018-12-13T10:03:17.284Z,23.57
2018-12-13T10:05:44.824Z,24.67
2018-12-13T10:08:12.388Z,28.27
2018-12-13T10:10:39.921Z,26.33
2018-12-13T10:13:07.485Z,29.13
2018-12-13T10:15:35.039Z,28.13
2018-12-13T10:18:02.643Z,27.60
2018-12-13T10:20:30.228Z,25.43
2018-12-13T10:22:57.789Z,18.93
2018-12-13T10:25:25.371Z,29.30
2018-12-13T10:27:52.976Z,18.43
2018-12-13T10:30:20.556Z,28.97
2018-12-13T10:32:48.117Z,28.93
2018-12-13T10:35:15.660Z,20.83
2018-12-13T10:37:43.215Z,22.47
2018-12-13T10:40:10.799Z,29.20
2018-12-13T10:42:38.355Z,23.80
2018-12-13T10:45:06.180Z,20.17
2018-12-13T10:47:33.740Z,26.03
2018-12-13T10:50:01.279Z,30.70
2018-12-13T10:52:28.847Z,26.57
2018-12-13T10:54:56.391Z,27.20
2018-12-13T10:57:23.943Z,24.90
2018-12-13T10:59:51.483Z,23.43
2018-12-13T11:02:40.840Z,22.80
2018-12-13T11:05:08.380Z,30.77
2018-12-13T11:07:35.940Z,26.40
2018-12-13T11:10:03.964Z,23.53
2018-12-13T11:12:31.523Z,32.63
2018-12-13T11:14:59.065Z,27.53
2018-12-13T11:17:26.624Z,27.30
2018-12-13T11:19:54.171Z,31.97
2018-12-13T11:22:21.727Z,22.80
2018-12-13T11:24:49.314Z,29.40
2018-12-13T11:27:28.908Z,30.10
2018-12-13T11:33:02.038Z,29.50
2018-12-13T11:35:29.597Z,24.10
2018-12-13T11:37:57.169Z,24.17
2018-12-13T11:40:24.723Z,28.47
2018-12-13T11:42:52.293Z,23.97
2018-12-13T11:45:19.843Z,29.00
2018-12-13T11:47:47.411Z,26.07
2018-12-13T11:50:14.966Z,20.17
2018-12-13T11:52:42.535Z,18.63
2018-12-13T11:55:18.712Z,29.87
2018-12-13T11:57:46.283Z,24.70
2018-12-13T12:00:13.885Z,25.07
2018-12-13T12:02:41.474Z,31.17
2018-12-13T12:05:09.065Z,21.83
2018-12-13T12:07:36.719Z,30.00
2018-12-13T12:10:04.856Z,27.23
2018-12-13T12:12:32.443Z,21.63
2018-12-13T12:15:00.144Z,32.83
2018-12-13T12:17:27.715Z,22.67
2018-12-13T12:19:55.264Z,24.67
2018-12-13T12:22:22.832Z,18.20
2018-12-13T12:24:50.384Z,25.63
2018-12-13T12:27:17.971Z,23.40
2018-12-13T12:29:45.520Z,16.67
2018-12-13T12:32:13.072Z,17.43
2018-12-13T12:34:40.688Z,29.20
2018-12-13T12:37:08.241Z,26.80
2018-12-13T12:39:35.812Z,26.80
2018-12-13T12:42:03.412Z,18.27
2018-12-13T12:44:35.156Z,20.43
2018-12-13T12:47:02.791Z,21.80
2018-12-13T12:49:30.360Z,25.93
2018-12-13T12:51:57.912Z,18.40
2018-12-13T12:54:25.482Z,17.57
2018-12-13T12:56:53.076Z,13.73
2018-12-13T12:59:20.639Z,15.93
2018-12-13T13:01:48.740Z,20.97
2018-12-13T13:04:16.311Z,23.87
2018-12-13T13:06:43.864Z,20.63
2018-12-13T13:09:11.440Z,19.93
2018-12-13T13:11:38.983Z,21.10
2018-12-13T13:14:06.560Z,20.47
2018-12-13T13:16:34.108Z,24.90
2018-12-13T13:19:01.683Z,24.87
2018-12-13T13:21:29.228Z,29.60
2018-12-13T13:23:56.796Z,33.03
2018-12-13T13:26:24.343Z,23.03
2018-12-13T13:28:51.915Z,21.73
2018-12-13T13:31:19.465Z,30.70
2018-12-13T13:33:47.036Z,23.83
2018-12-13T13:36:14.651Z,22.37
2018-12-13T13:38:42.286Z,21.70
2018-12-13T13:41:09.844Z,21.30
2018-12-13T13:43:37.415Z,15.57
2018-12-13T13:46:04.965Z,20.87
2018-12-13T13:48:32.536Z,25.00
2018-12-13T13:51:00.127Z,18.87
2018-12-13T13:53:27.698Z,25.23
2018-12-13T13:55:55.251Z,15.50
2018-12-13T13:58:22.815Z,18.97
2018-12-13T14:00:50.364Z,22.73
2018-12-13T14:03:17.935Z,18.33
2018-12-13T14:05:45.480Z,22.63
2018-12-13T14:08:13.048Z,19.50
2018-12-13T14:10:40.595Z,14.37
2018-12-13T14:13:08.163Z,19.90
2018-12-13T14:15:35.715Z,18.90
2018-12-13T14:18:03.327Z,24.13
2018-12-13T14:20:30.912Z,28.30
2018-12-13T14:22:58.812Z,22.70
2018-12-13T14:25:26.383Z,26.43
2018-12-13T14:27:53.935Z,25.83
2018-12-13T14:30:21.506Z,25.87
2018-12-13T14:32:49.059Z,22.50
2018-12-13T14:35:16.630Z,22.67
2018-12-13T14:37:44.223Z,21.53
2018-12-13T14:40:11.799Z,17.77
2018-12-13T14:42:39.396Z,17.23
2018-12-13T14:45:07.111Z,21.17
2018-12-13T14:47:34.661Z,24.27
2018-12-13T14:50:02.231Z,19.67
2018-12-13T14:52:29.790Z,21.30
2018-12-13T14:54:58.353Z,20.53
2018-12-13T14:57:26.136Z,23.80
2018-12-13T14:59:53.699Z,28.13
2018-12-13T15:02:21.251Z,25.03
2018-12-13T15:04:48.825Z,23.47
2018-12-13T15:07:16.376Z,23.77
2018-12-13T15:09:43.947Z,24.43
2018-12-13T15:12:11.543Z,26.80
2018-12-13T15:14:39.116Z,23.20
2018-12-13T15:17:06.681Z,28.27
2018-12-13T15:19:34.297Z,27.27
2018-12-13T15:22:06.529Z,17.80
2018-12-13T15:24:34.099Z,22.97
2018-12-13T15:27:01.664Z,23.53
2018-12-13T15:29:29.228Z,28.87
2018-12-13T15:31:59.420Z,26.17
2018-12-13T15:34:26.378Z,24.90
2018-12-13T15:36:53.934Z,24.83
2018-12-13T15:39:21.506Z,18.37
2018-12-13T15:41:49.056Z,22.23
2018-12-13T15:44:16.631Z,23.40
2018-12-13T15:46:44.224Z,22.57
2018-12-13T15:49:11.794Z,20.63
2018-12-13T15:51:39.343Z,19.70
2018-12-13T15:54:06.912Z,27.03
2018-12-13T15:56:34.483Z,22.20
2018-12-13T15:59:02.059Z,23.53
2018-12-13T16:01:29.611Z,21.07
2018-12-13T16:03:57.204Z,17.20
2018-12-13T16:06:24.847Z,17.20
2018-12-13T16:08:52.408Z,19.07
2018-12-13T16:11:20.025Z,23.93
2018-12-13T16:13:47.580Z,21.23
2018-12-13T16:16:15.149Z,27.07
2018-12-13T16:18:42.701Z,27.30
2018-12-13T16:21:10.275Z,17.13
2018-12-13T16:23:37.823Z,26.10
2018-12-13T16:26:05.442Z,26.63
2018-12-13T16:28:32.995Z,22.53
2018-12-13T16:31:00.569Z,17.47
2018-12-13T16:33:28.122Z,20.00
2018-12-13T16:35:55.697Z,29.93
2018-12-13T16:38:23.244Z,21.07
2018-12-13T16:40:50.811Z,17.97
2018-12-13T16:43:18.363Z,27.83
2018-12-13T16:45:45.930Z,26.43
2018-12-13T16:48:13.484Z,25.50
2018-12-13T16:50:41.052Z,21.73
2018-12-13T16:53:08.614Z,20.23
2018-12-13T16:55:36.188Z,20.33
2018-12-13T16:58:03.780Z,24.33
2018-12-13T17:00:31.355Z,20.57
2018-12-13T17:02:58.907Z,19.07
2018-12-13T17:05:26.523Z,15.67
2018-12-13T17:07:54.082Z,18.10
2018-12-13T17:10:21.650Z,26.40
2018-12-13T17:12:49.201Z,20.27
2018-12-13T17:15:16.776Z,21.70
2018-12-13T17:17:44.324Z,16.93
2018-12-13T17:20:11.939Z,21.37
2018-12-13T17:22:39.497Z,18.87
2018-12-13T17:25:07.114Z,29.93
2018-12-13T17:27:34.791Z,25.70
2018-12-13T17:30:02.447Z,18.17
2018-12-13T17:32:29.992Z,28.27
2018-12-13T17:34:57.558Z,18.53
2018-12-13T17:37:25.110Z,17.13
2018-12-13T17:39:52.677Z,23.00
2018-12-13T17:42:20.235Z,23.10
2018-12-13T17:44:47.851Z,23.30
2018-12-13T17:47:15.405Z,15.73
2018-12-13T17:49:42.951Z,12.97
2018-12-13T17:52:10.523Z,23.03
2018-12-13T17:54:38.071Z,19.57
2018-12-13T17:57:05.642Z,20.83
2018-12-13T17:59:33.195Z,19.40
2018-12-13T18:02:00.768Z,17.27
2018-12-13T18:04:28.319Z,26.00
2018-12-13T18:06:55.896Z,19.73
2018-12-13T18:09:23.492Z,18.77
2018-12-13T18:11:51.063Z,18.30
2018-12-13T18:14:18.615Z,20.37
2018-12-13T18:16:46.178Z,26.20
2018-12-13T18:19:13.724Z,18.03
2018-12-13T18:21:41.291Z,18.23
2018-12-13T18:24:08.845Z,22.47
2018-12-13T18:26:36.423Z,25.73
2018-12-13T18:29:04.063Z,22.40
2018-12-13T18:31:31.634Z,20.43
2018-12-13T18:33:59.188Z,20.20
2018-12-13T18:36:26.807Z,16.43
2018-12-13T18:38:54.447Z,19.43
2018-12-13T18:41:22.103Z,19.43
2018-12-13T18:43:49.649Z,17.63
2018-12-13T18:46:17.271Z,19.83
2018-12-13T18:48:44.825Z,17.33
2018-12-13T18:51:13.313Z,16.77
2018-12-13T18:53:40.859Z,20.07
2018-12-13T18:56:08.423Z,16.97
2018-12-13T18:58:35.984Z,19.63
2018-12-13T19:01:03.754Z,16.77
2018-12-13T19:03:31.307Z,14.97
2018-12-13T19:05:58.925Z,20.43
2018-12-13T19:08:26.471Z,18.30
2018-12-13T19:10:55.155Z,20.03
2018-12-13T19:13:22.844Z,21.03
2018-12-13T19:15:50.415Z,20.33
2018-12-13T19:18:17.959Z,22.07
2018-12-13T19:20:46.498Z,21.30
2018-12-13T19:23:14.043Z,18.57
2018-12-13T19:25:41.614Z,21.37
2018-12-13T19:28:09.161Z,20.97
2018-12-13T19:30:37.692Z,17.50
2018-12-13T19:33:05.294Z,18.53
2018-12-13T19:35:32.847Z,20.43
2018-12-13T19:38:00.422Z,15.00
2018-12-13T19:40:27.974Z,15.93
2018-12-13T19:42:55.543Z,14.53
2018-12-13T19:45:23.128Z,13.60
2018-12-13T19:47:50.696Z,12.53
2018-12-13T19:50:18.247Z,18.40
2018-12-13T19:52:45.820Z,19.23
2018-12-13T19:55:13.372Z,14.20
2018-12-13T19:57:40.936Z,15.63
2018-12-13T20:00:09.316Z,19.00
2018-12-13T20:02:36.931Z,17.50
2018-12-13T20:05:05.387Z,16.30
2018-12-13T20:07:34.898Z,18.13
2018-12-13T20:10:02.736Z,17.43
2018-12-13T20:12:30.312Z,18.10
2018-12-13T20:14:57.899Z,18.43
2018-12-13T20:17:25.467Z,15.53
2018-12-13T20:19:53.019Z,18.43
2018-12-13T20:22:20.605Z,15.23
2018-12-13T20:24:48.167Z,22.13
2018-12-13T20:27:15.778Z,17.90
2018-12-13T20:29:43.471Z,19.63
2018-12-13T20:32:11.043Z,16.57
2018-12-13T20:34:38.652Z,18.63
2018-12-13T20:37:06.283Z,21.30
2018-12-13T20:39:33.828Z,14.20
2018-12-13T20:42:01.392Z,16.23
2018-12-13T20:44:28.937Z,15.17
2018-12-13T20:46:56.500Z,20.70
2018-12-13T20:49:24.044Z,23.23
2018-12-13T20:51:51.616Z,17.20
2018-12-13T20:54:19.172Z,18.40
2018-12-13T20:56:46.741Z,17.13
2018-12-13T20:59:14.294Z,18.73
2018-12-13T21:01:41.867Z,14.57
2018-12-13T21:04:09.415Z,21.60
2018-12-13T21:06:36.988Z,16.93
2018-12-13T21:09:06.425Z,13.43
2018-12-13T21:11:34.031Z,19.17
2018-12-13T21:14:01.579Z,20.07
2018-12-13T21:16:29.146Z,14.17
2018-12-13T21:18:56.691Z,19.70
2018-12-13T21:21:24.260Z,18.77
2018-12-13T21:23:51.836Z,20.73
2018-12-13T21:26:19.383Z,19.60
2018-12-13T21:28:46.943Z,13.60
2018-12-13T21:31:14.490Z,20.40
2018-12-13T21:33:42.100Z,21.00
2018-12-13T21:36:09.647Z,18.33
2018-12-13T21:38:37.215Z,18.63
2018-12-13T21:41:04.767Z,19.87
2018-12-13T21:43:32.336Z,15.93
2018-12-13T21:45:59.883Z,20.57
2018-12-13T21:48:27.459Z,13.03
2018-12-13T21:50:55.952Z,14.43
2018-12-13T21:53:23.983Z,17.63
2018-12-13T21:55:51.580Z,21.63
2018-12-13T21:58:19.148Z,12.57
2018-12-13T22:00:46.697Z,13.27
2018-12-13T22:03:14.268Z,14.47
2018-12-13T22:05:41.816Z,15.57
2018-12-13T22:08:09.383Z,14.27
2018-12-13T22:10:36.931Z,20.07
2018-12-13T22:13:04.499Z,15.53
2018-12-13T22:15:32.049Z,16.40
2018-12-13T22:17:59.615Z,15.70
2018-12-13T22:20:27.255Z,11.03
2018-12-13T22:22:54.820Z,15.90
2018-12-13T22:25:22.371Z,20.10
2018-12-13T22:27:49.980Z,18.63
2018-12-13T22:30:17.527Z,13.93
2018-12-13T22:32:45.095Z,12.33
2018-12-13T22:35:12.644Z,14.37
2018-12-13T22:37:40.251Z,12.50
2018-12-13T22:40:07.882Z,14.73
2018-12-13T22:42:35.464Z,17.93
2018-12-13T22:45:03.513Z,15.00
2018-12-13T22:47:31.087Z,15.73
2018-12-13T22:49:58.643Z,19.80
2018-12-13T22:52:26.218Z,14.23
2018-12-13T22:54:53.764Z,9.97
2018-12-13T22:57:21.342Z,10.70
2018-12-13T22:59:48.888Z,14.67
2018-12-13T23:02:16.508Z,16.77
2018-12-13T23:04:44.054Z,14.67
2018-12-13T23:07:11.620Z,12.87
2018-12-13T23:09:39.187Z,16.20
2018-12-13T23:12:06.743Z,16.37
2018-12-13T23:14:34.759Z,15.80
2018-12-13T23:17:02.551Z,14.87
2018-12-13T23:19:30.163Z,14.40
2018-12-13T23:21:57.708Z,14.30
2018-12-13T23:24:25.276Z,16.33
2018-12-13T23:26:52.815Z,12.77
2018-12-13T23:29:20.431Z,14.43
2018-12-13T23:31:47.979Z,17.50
2018-12-13T23:34:15.547Z,17.97
2018-12-13T23:36:43.144Z,15.83
2018-12-13T23:39:10.717Z,19.07
2018-12-13T23:41:39.357Z,18.77
2018-12-13T23:44:07.259Z,21.87
2018-12-13T23:46:34.815Z,16.43
2018-12-13T23:49:02.387Z,21.80
2018-12-13T23:51:29.935Z,20.17
2018-12-13T23:53:57.509Z,16.57
2018-12-13T23:56:25.105Z,17.10
2018-12-13T23:58:52.920Z,19.47
